sensor_id;sensor_type;location;lat;lon;timestamp;P1;durP1;ratioP1;P2;durP2;ratioP2
3881;SDS011;1956;53.482;10.238;2022-08-23T00:04:25;5.93;;;2.27;;
3881;SDS011;1956;53.482;10.238;2022-08-23T00:09:29;6.27;;;2.80;;
3881;SDS011;1956;53.482;10.238;2022-08-23T00:14:31;6.40;;;2.50;;
3881;SDS011;1956;53.482;10.238;2022-08-23T00:19:33;3.57;;;2.73;;
3881;SDS011;1956;53.482;10.238;2022-08-23T00:24:34;10.63;;;2.53;;
3881;SDS011;1956;53.482;10.238;2022-08-23T00:29:37;4.83;;;2.83;;
3881;SDS011;1956;53.482;10.238;2022-08-23T00:34:41;2.80;;;2.53;;
3881;SDS011;1956;53.482;10.238;2022-08-23T00:39:42;6.27;;;3.90;;
3881;SDS011;1956;53.482;10.238;2022-08-23T00:44:44;4.20;;;2.60;;
3881;SDS011;1956;53.482;10.238;2022-08-23T00:50:11;5.83;;;2.60;;
3881;SDS011;1956;53.482;10.238;2022-08-23T00:55:20;7.43;;;3.07;;
3881;SDS011;1956;53.482;10.238;2022-08-23T01:00:20;4.90;;;3.00;;
3881;SDS011;1956;53.482;10.238;2022-08-23T01:05:22;4.30;;;3.10;;
3881;SDS011;1956;53.482;10.238;2022-08-23T01:10:30;6.37;;;2.60;;
3881;SDS011;1956;53.482;10.238;2022-08-23T01:15:34;4.90;;;3.30;;
3881;SDS011;1956;53.482;10.238;2022-08-23T01:20:43;7.67;;;2.53;;
3881;SDS011;1956;53.482;10.238;2022-08-23T01:25:50;3.40;;;3.10;;
3881;SDS011;1956;53.482;10.238;2022-08-23T01:30:51;5.17;;;2.60;;
3881;SDS011;1956;53.482;10.238;2022-08-23T01:35:52;9.03;;;3.77;;
3881;SDS011;1956;53.482;10.238;2022-08-23T01:40:54;5.73;;;2.87;;
3881;SDS011;1956;53.482;10.238;2022-08-23T01:45:55;11.00;;;3.40;;
3881;SDS011;1956;53.482;10.238;2022-08-23T01:50:55;6.63;;;3.00;;
3881;SDS011;1956;53.482;10.238;2022-08-23T01:55:56;5.10;;;3.03;;
3881;SDS011;1956;53.482;10.238;2022-08-23T02:00:56;3.80;;;3.00;;
3881;SDS011;1956;53.482;10.238;2022-08-23T02:05:57;6.13;;;2.90;;
3881;SDS011;1956;53.482;10.238;2022-08-23T02:10:57;5.33;;;3.27;;
3881;SDS011;1956;53.482;10.238;2022-08-23T02:15:58;8.27;;;3.40;;
3881;SDS011;1956;53.482;10.238;2022-08-23T02:20:59;8.93;;;3.17;;
3881;SDS011;1956;53.482;10.238;2022-08-23T02:25:59;4.03;;;3.20;;
3881;SDS011;1956;53.482;10.238;2022-08-23T02:31:00;6.97;;;3.53;;
3881;SDS011;1956;53.482;10.238;2022-08-23T02:36:00;6.57;;;3.73;;
3881;SDS011;1956;53.482;10.238;2022-08-23T02:41:00;10.33;;;3.20;;
3881;SDS011;1956;53.482;10.238;2022-08-23T02:46:01;8.43;;;3.80;;
3881;SDS011;1956;53.482;10.238;2022-08-23T02:51:05;7.50;;;3.47;;
3881;SDS011;1956;53.482;10.238;2022-08-23T02:56:07;4.97;;;3.17;;
3881;SDS011;1956;53.482;10.238;2022-08-23T03:01:17;7.60;;;3.27;;
3881;SDS011;1956;53.482;10.238;2022-08-23T03:06:20;10.87;;;3.37;;
3881;SDS011;1956;53.482;10.238;2022-08-23T03:11:21;6.13;;;2.93;;
3881;SDS011;1956;53.482;10.238;2022-08-23T03:16:23;3.53;;;3.23;;
3881;SDS011;1956;53.482;10.238;2022-08-23T03:21:23;6.07;;;3.90;;
3881;SDS011;1956;53.482;10.238;2022-08-23T03:26:24;4.17;;;2.90;;
3881;SDS011;1956;53.482;10.238;2022-08-23T03:31:24;7.47;;;4.00;;
3881;SDS011;1956;53.482;10.238;2022-08-23T03:36:25;3.73;;;3.07;;
3881;SDS011;1956;53.482;10.238;2022-08-23T03:41:25;8.87;;;4.57;;
3881;SDS011;1956;53.482;10.238;2022-08-23T03:46:25;4.20;;;3.47;;
3881;SDS011;1956;53.482;10.238;2022-08-23T03:51:26;5.80;;;3.40;;
3881;SDS011;1956;53.482;10.238;2022-08-23T03:56:33;6.07;;;3.57;;
3881;SDS011;1956;53.482;10.238;2022-08-23T04:01:34;6.13;;;3.60;;
3881;SDS011;1956;53.482;10.238;2022-08-23T04:06:35;5.23;;;3.43;;
3881;SDS011;1956;53.482;10.238;2022-08-23T04:11:36;5.70;;;2.83;;
3881;SDS011;1956;53.482;10.238;2022-08-23T04:16:36;11.13;;;3.60;;
3881;SDS011;1956;53.482;10.238;2022-08-23T04:21:38;6.17;;;3.30;;
3881;SDS011;1956;53.482;10.238;2022-08-23T04:26:39;5.10;;;3.90;;
3881;SDS011;1956;53.482;10.238;2022-08-23T04:31:40;5.97;;;3.00;;
3881;SDS011;1956;53.482;10.238;2022-08-23T04:36:41;4.63;;;3.67;;
3881;SDS011;1956;53.482;10.238;2022-08-23T04:41:42;5.87;;;3.30;;
3881;SDS011;1956;53.482;10.238;2022-08-23T04:47:01;9.50;;;3.27;;
3881;SDS011;1956;53.482;10.238;2022-08-23T04:52:02;4.20;;;2.80;;
3881;SDS011;1956;53.482;10.238;2022-08-23T04:57:02;6.07;;;3.23;;
3881;SDS011;1956;53.482;10.238;2022-08-23T05:02:03;3.50;;;3.20;;
3881;SDS011;1956;53.482;10.238;2022-08-23T05:07:04;3.20;;;2.90;;
3881;SDS011;1956;53.482;10.238;2022-08-23T05:12:04;4.40;;;2.60;;
3881;SDS011;1956;53.482;10.238;2022-08-23T05:17:05;3.70;;;2.90;;
3881;SDS011;1956;53.482;10.238;2022-08-23T05:22:06;8.00;;;3.00;;
3881;SDS011;1956;53.482;10.238;2022-08-23T05:27:06;2.73;;;2.50;;
3881;SDS011;1956;53.482;10.238;2022-08-23T05:32:06;7.40;;;2.70;;
3881;SDS011;1956;53.482;10.238;2022-08-23T05:37:07;5.03;;;2.43;;
3881;SDS011;1956;53.482;10.238;2022-08-23T05:42:08;6.80;;;2.77;;
3881;SDS011;1956;53.482;10.238;2022-08-23T05:47:11;2.77;;;2.27;;
3881;SDS011;1956;53.482;10.238;2022-08-23T05:52:13;3.73;;;2.73;;
3881;SDS011;1956;53.482;10.238;2022-08-23T05:57:13;13.57;;;2.93;;
3881;SDS011;1956;53.482;10.238;2022-08-23T06:02:14;7.40;;;2.90;;
3881;SDS011;1956;53.482;10.238;2022-08-23T06:07:14;3.77;;;2.37;;
3881;SDS011;1956;53.482;10.238;2022-08-23T06:12:15;3.03;;;2.00;;
3881;SDS011;1956;53.482;10.238;2022-08-23T06:17:16;5.07;;;2.10;;
3881;SDS011;1956;53.482;10.238;2022-08-23T06:22:16;2.47;;;2.27;;
3881;SDS011;1956;53.482;10.238;2022-08-23T06:27:17;4.60;;;2.70;;
3881;SDS011;1956;53.482;10.238;2022-08-23T06:32:18;3.67;;;2.77;;
3881;SDS011;1956;53.482;10.238;2022-08-23T06:37:18;4.57;;;2.80;;
3881;SDS011;1956;53.482;10.238;2022-08-23T06:42:18;3.83;;;2.70;;
3881;SDS011;1956;53.482;10.238;2022-08-23T06:47:19;3.07;;;2.47;;
3881;SDS011;1956;53.482;10.238;2022-08-23T06:52:19;5.07;;;2.80;;
3881;SDS011;1956;53.482;10.238;2022-08-23T06:57:20;3.23;;;2.47;;
3881;SDS011;1956;53.482;10.238;2022-08-23T07:02:20;3.63;;;3.10;;
3881;SDS011;1956;53.482;10.238;2022-08-23T07:07:20;5.70;;;2.73;;
3881;SDS011;1956;53.482;10.238;2022-08-23T07:12:21;3.17;;;2.30;;
3881;SDS011;1956;53.482;10.238;2022-08-23T07:17:21;4.70;;;2.83;;
3881;SDS011;1956;53.482;10.238;2022-08-23T07:22:22;3.00;;;2.40;;
3881;SDS011;1956;53.482;10.238;2022-08-23T07:27:23;4.23;;;2.60;;
3881;SDS011;1956;53.482;10.238;2022-08-23T07:32:24;4.00;;;2.43;;
3881;SDS011;1956;53.482;10.238;2022-08-23T07:37:24;4.80;;;2.77;;
3881;SDS011;1956;53.482;10.238;2022-08-23T07:42:25;3.83;;;2.40;;
3881;SDS011;1956;53.482;10.238;2022-08-23T07:47:25;3.47;;;2.27;;
3881;SDS011;1956;53.482;10.238;2022-08-23T07:52:27;2.73;;;2.00;;
3881;SDS011;1956;53.482;10.238;2022-08-23T07:57:27;2.73;;;2.53;;
3881;SDS011;1956;53.482;10.238;2022-08-23T08:02:28;1.70;;;1.60;;
3881;SDS011;1956;53.482;10.238;2022-08-23T08:07:28;2.70;;;1.70;;
3881;SDS011;1956;53.482;10.238;2022-08-23T08:12:29;4.93;;;2.27;;
3881;SDS011;1956;53.482;10.238;2022-08-23T08:17:30;5.67;;;2.00;;
3881;SDS011;1956;53.482;10.238;2022-08-23T08:22:31;3.70;;;1.90;;
3881;SDS011;1956;53.482;10.238;2022-08-23T08:27:31;2.60;;;2.33;;
3881;SDS011;1956;53.482;10.238;2022-08-23T08:32:32;10.20;;;2.20;;
3881;SDS011;1956;53.482;10.238;2022-08-23T08:37:32;7.70;;;2.00;;
3881;SDS011;1956;53.482;10.238;2022-08-23T08:43:10;2.97;;;2.13;;
3881;SDS011;1956;53.482;10.238;2022-08-23T08:48:22;2.60;;;2.03;;
3881;SDS011;1956;53.482;10.238;2022-08-23T08:53:25;6.00;;;2.33;;
3881;SDS011;1956;53.482;10.238;2022-08-23T08:58:32;3.07;;;2.07;;
3881;SDS011;1956;53.482;10.238;2022-08-23T09:03:39;5.37;;;2.10;;
3881;SDS011;1956;53.482;10.238;2022-08-23T09:08:45;5.73;;;1.90;;
3881;SDS011;1956;53.482;10.238;2022-08-23T09:20:05;5.77;;;1.90;;
3881;SDS011;1956;53.482;10.238;2022-08-23T09:25:07;4.37;;;1.90;;
3881;SDS011;1956;53.482;10.238;2022-08-23T09:30:11;1.90;;;1.73;;
3881;SDS011;1956;53.482;10.238;2022-08-23T09:40:36;3.63;;;1.70;;
3881;SDS011;1956;53.482;10.238;2022-08-23T09:45:51;3.10;;;1.73;;
3881;SDS011;1956;53.482;10.238;2022-08-23T09:51:02;2.97;;;1.70;;
3881;SDS011;1956;53.482;10.238;2022-08-23T09:56:25;3.73;;;2.00;;
3881;SDS011;1956;53.482;10.238;2022-08-23T10:01:27;1.50;;;1.37;;
3881;SDS011;1956;53.482;10.238;2022-08-23T10:06:30;3.70;;;1.70;;
3881;SDS011;1956;53.482;10.238;2022-08-23T10:11:34;2.60;;;1.20;;
3881;SDS011;1956;53.482;10.238;2022-08-23T10:22:43;1.23;;;1.10;;
3881;SDS011;1956;53.482;10.238;2022-08-23T10:27:47;1.80;;;1.47;;
3881;SDS011;1956;53.482;10.238;2022-08-23T10:33:38;1.20;;;1.10;;
3881;SDS011;1956;53.482;10.238;2022-08-23T10:39:03;2.40;;;1.23;;
3881;SDS011;1956;53.482;10.238;2022-08-23T10:49:26;1.50;;;1.00;;
3881;SDS011;1956;53.482;10.238;2022-08-23T10:54:36;2.00;;;1.00;;
3881;SDS011;1956;53.482;10.238;2022-08-23T10:59:58;4.93;;;1.27;;
3881;SDS011;1956;53.482;10.238;2022-08-23T11:05:19;1.90;;;1.70;;
3881;SDS011;1956;53.482;10.238;2022-08-23T11:10:42;2.60;;;1.27;;
3881;SDS011;1956;53.482;10.238;2022-08-23T11:16:04;1.73;;;1.50;;
3881;SDS011;1956;53.482;10.238;2022-08-23T11:27:00;1.87;;;1.20;;
3881;SDS011;1956;53.482;10.238;2022-08-23T11:37:48;6.53;;;1.37;;
3881;SDS011;1956;53.482;10.238;2022-08-23T11:43:09;3.13;;;1.23;;
3881;SDS011;1956;53.482;10.238;2022-08-23T11:48:17;3.17;;;1.23;;
3881;SDS011;1956;53.482;10.238;2022-08-23T11:53:24;4.47;;;1.30;;
3881;SDS011;1956;53.482;10.238;2022-08-23T12:04:40;1.43;;;0.90;;
3881;SDS011;1956;53.482;10.238;2022-08-23T12:09:49;1.53;;;1.10;;
3881;SDS011;1956;53.482;10.238;2022-08-23T12:14:56;4.13;;;1.37;;
3881;SDS011;1956;53.482;10.238;2022-08-23T12:19:59;4.60;;;1.20;;
3881;SDS011;1956;53.482;10.238;2022-08-23T12:25:10;1.30;;;1.20;;
3881;SDS011;1956;53.482;10.238;2022-08-23T12:30:23;1.50;;;1.10;;
3881;SDS011;1956;53.482;10.238;2022-08-23T12:35:34;3.43;;;1.40;;
3881;SDS011;1956;53.482;10.238;2022-08-23T12:40:40;3.30;;;1.10;;
3881;SDS011;1956;53.482;10.238;2022-08-23T12:45:44;1.33;;;1.20;;
3881;SDS011;1956;53.482;10.238;2022-08-23T12:50:53;3.10;;;1.17;;
3881;SDS011;1956;53.482;10.238;2022-08-23T12:56:06;3.30;;;1.37;;
3881;SDS011;1956;53.482;10.238;2022-08-23T13:01:16;5.90;;;1.13;;
3881;SDS011;1956;53.482;10.238;2022-08-23T13:06:27;1.23;;;1.10;;
3881;SDS011;1956;53.482;10.238;2022-08-23T13:11:31;5.23;;;1.37;;
3881;SDS011;1956;53.482;10.238;2022-08-23T13:27:16;1.30;;;1.17;;
3881;SDS011;1956;53.482;10.238;2022-08-23T13:37:30;4.03;;;1.50;;
3881;SDS011;1956;53.482;10.238;2022-08-23T13:42:35;4.33;;;1.43;;
3881;SDS011;1956;53.482;10.238;2022-08-23T13:47:47;3.37;;;1.37;;
3881;SDS011;1956;53.482;10.238;2022-08-23T13:52:49;1.30;;;1.20;;
3881;SDS011;1956;53.482;10.238;2022-08-23T13:57:50;5.23;;;1.70;;
3881;SDS011;1956;53.482;10.238;2022-08-23T14:02:51;1.40;;;1.27;;
3881;SDS011;1956;53.482;10.238;2022-08-23T14:07:51;4.50;;;1.60;;
3881;SDS011;1956;53.482;10.238;2022-08-23T14:12:52;2.60;;;1.50;;
3881;SDS011;1956;53.482;10.238;2022-08-23T14:17:53;2.50;;;1.30;;
3881;SDS011;1956;53.482;10.238;2022-08-23T14:22:54;1.30;;;1.10;;
3881;SDS011;1956;53.482;10.238;2022-08-23T14:27:54;2.60;;;1.10;;
3881;SDS011;1956;53.482;10.238;2022-08-23T14:32:55;1.57;;;1.20;;
3881;SDS011;1956;53.482;10.238;2022-08-23T14:37:56;1.20;;;1.10;;
3881;SDS011;1956;53.482;10.238;2022-08-23T14:42:57;2.07;;;1.20;;
3881;SDS011;1956;53.482;10.238;2022-08-23T14:47:57;1.63;;;1.43;;
3881;SDS011;1956;53.482;10.238;2022-08-23T14:52:58;1.10;;;1.00;;
3881;SDS011;1956;53.482;10.238;2022-08-23T14:58:02;5.33;;;1.63;;
3881;SDS011;1956;53.482;10.238;2022-08-23T15:03:03;4.70;;;1.50;;
3881;SDS011;1956;53.482;10.238;2022-08-23T15:08:06;2.80;;;1.37;;
3881;SDS011;1956;53.482;10.238;2022-08-23T15:13:06;3.13;;;1.40;;
3881;SDS011;1956;53.482;10.238;2022-08-23T15:18:07;1.63;;;1.00;;
3881;SDS011;1956;53.482;10.238;2022-08-23T15:23:10;1.40;;;1.30;;
3881;SDS011;1956;53.482;10.238;2022-08-23T15:28:12;1.27;;;1.10;;
3881;SDS011;1956;53.482;10.238;2022-08-23T15:33:13;3.70;;;1.17;;
3881;SDS011;1956;53.482;10.238;2022-08-23T15:38:14;1.77;;;1.07;;
3881;SDS011;1956;53.482;10.238;2022-08-23T15:43:15;2.47;;;1.20;;
3881;SDS011;1956;53.482;10.238;2022-08-23T15:48:25;1.43;;;1.07;;
3881;SDS011;1956;53.482;10.238;2022-08-23T15:53:27;4.43;;;1.40;;
3881;SDS011;1956;53.482;10.238;2022-08-23T15:58:27;4.20;;;1.73;;
3881;SDS011;1956;53.482;10.238;2022-08-23T16:03:28;1.30;;;1.20;;
3881;SDS011;1956;53.482;10.238;2022-08-23T16:08:30;2.80;;;1.30;;
3881;SDS011;1956;53.482;10.238;2022-08-23T16:13:32;4.57;;;1.50;;
3881;SDS011;1956;53.482;10.238;2022-08-23T16:18:33;6.23;;;1.60;;
3881;SDS011;1956;53.482;10.238;2022-08-23T16:23:33;1.70;;;1.07;;
3881;SDS011;1956;53.482;10.238;2022-08-23T16:28:34;2.27;;;1.90;;
3881;SDS011;1956;53.482;10.238;2022-08-23T16:33:34;9.20;;;1.40;;
3881;SDS011;1956;53.482;10.238;2022-08-23T16:38:35;8.03;;;1.77;;
3881;SDS011;1956;53.482;10.238;2022-08-23T16:43:36;2.53;;;1.30;;
3881;SDS011;1956;53.482;10.238;2022-08-23T16:48:36;2.50;;;1.20;;
3881;SDS011;1956;53.482;10.238;2022-08-23T16:53:37;9.53;;;1.40;;
3881;SDS011;1956;53.482;10.238;2022-08-23T16:58:37;3.30;;;1.20;;
3881;SDS011;1956;53.482;10.238;2022-08-23T17:03:41;3.63;;;1.53;;
3881;SDS011;1956;53.482;10.238;2022-08-23T17:08:42;3.23;;;1.40;;
3881;SDS011;1956;53.482;10.238;2022-08-23T17:13:43;2.83;;;1.27;;
3881;SDS011;1956;53.482;10.238;2022-08-23T17:18:44;4.00;;;1.50;;
3881;SDS011;1956;53.482;10.238;2022-08-23T17:23:44;3.70;;;1.70;;
3881;SDS011;1956;53.482;10.238;2022-08-23T17:28:45;10.40;;;1.80;;
3881;SDS011;1956;53.482;10.238;2022-08-23T17:33:45;2.60;;;1.47;;
3881;SDS011;1956;53.482;10.238;2022-08-23T17:38:46;2.00;;;1.17;;
3881;SDS011;1956;53.482;10.238;2022-08-23T17:43:46;5.50;;;2.03;;
3881;SDS011;1956;53.482;10.238;2022-08-23T17:48:46;5.27;;;1.47;;
3881;SDS011;1956;53.482;10.238;2022-08-23T17:53:47;5.23;;;1.90;;
3881;SDS011;1956;53.482;10.238;2022-08-23T17:58:47;3.53;;;2.10;;
3881;SDS011;1956;53.482;10.238;2022-08-23T18:03:48;3.83;;;1.80;;
3881;SDS011;1956;53.482;10.238;2022-08-23T18:08:48;1.53;;;1.30;;
3881;SDS011;1956;53.482;10.238;2022-08-23T18:13:49;7.27;;;2.20;;
3881;SDS011;1956;53.482;10.238;2022-08-23T18:18:49;6.80;;;1.90;;
3881;SDS011;1956;53.482;10.238;2022-08-23T18:23:52;5.20;;;1.67;;
3881;SDS011;1956;53.482;10.238;2022-08-23T18:28:53;1.97;;;1.57;;
3881;SDS011;1956;53.482;10.238;2022-08-23T18:33:54;4.50;;;1.40;;
3881;SDS011;1956;53.482;10.238;2022-08-23T18:38:55;3.57;;;1.97;;
3881;SDS011;1956;53.482;10.238;2022-08-23T18:43:56;3.63;;;2.20;;
3881;SDS011;1956;53.482;10.238;2022-08-23T18:48:57;4.83;;;1.67;;
3881;SDS011;1956;53.482;10.238;2022-08-23T18:53:58;3.23;;;1.77;;
3881;SDS011;1956;53.482;10.238;2022-08-23T18:58:59;4.50;;;1.40;;
3881;SDS011;1956;53.482;10.238;2022-08-23T19:04:01;1.50;;;1.40;;
3881;SDS011;1956;53.482;10.238;2022-08-23T19:09:03;3.03;;;1.87;;
3881;SDS011;1956;53.482;10.238;2022-08-23T19:14:04;4.53;;;1.30;;
3881;SDS011;1956;53.482;10.238;2022-08-23T19:19:05;3.83;;;1.20;;
3881;SDS011;1956;53.482;10.238;2022-08-23T19:24:06;3.33;;;2.03;;
3881;SDS011;1956;53.482;10.238;2022-08-23T19:29:07;4.50;;;1.67;;
3881;SDS011;1956;53.482;10.238;2022-08-23T19:34:08;5.33;;;1.73;;
3881;SDS011;1956;53.482;10.238;2022-08-23T19:39:09;11.37;;;1.70;;
3881;SDS011;1956;53.482;10.238;2022-08-23T19:44:09;6.17;;;1.80;;
3881;SDS011;1956;53.482;10.238;2022-08-23T19:49:13;7.30;;;2.10;;
3881;SDS011;1956;53.482;10.238;2022-08-23T19:54:13;5.53;;;1.67;;
3881;SDS011;1956;53.482;10.238;2022-08-23T19:59:15;6.60;;;1.53;;
3881;SDS011;1956;53.482;10.238;2022-08-23T20:04:18;4.57;;;1.57;;
3881;SDS011;1956;53.482;10.238;2022-08-23T20:09:20;6.37;;;2.30;;
3881;SDS011;1956;53.482;10.238;2022-08-23T20:14:22;6.67;;;1.40;;
3881;SDS011;1956;53.482;10.238;2022-08-23T20:19:23;5.90;;;1.73;;
3881;SDS011;1956;53.482;10.238;2022-08-23T20:24:24;3.97;;;1.57;;
3881;SDS011;1956;53.482;10.238;2022-08-23T20:29:24;3.63;;;1.77;;
3881;SDS011;1956;53.482;10.238;2022-08-23T20:34:25;6.27;;;2.33;;
3881;SDS011;1956;53.482;10.238;2022-08-23T20:39:26;6.93;;;1.77;;
3881;SDS011;1956;53.482;10.238;2022-08-23T20:44:27;2.90;;;1.77;;
3881;SDS011;1956;53.482;10.238;2022-08-23T20:49:27;3.20;;;1.20;;
3881;SDS011;1956;53.482;10.238;2022-08-23T20:54:28;3.20;;;1.70;;
3881;SDS011;1956;53.482;10.238;2022-08-23T20:59:28;5.93;;;2.10;;
3881;SDS011;1956;53.482;10.238;2022-08-23T21:04:29;2.67;;;1.80;;
3881;SDS011;1956;53.482;10.238;2022-08-23T21:09:29;10.27;;;2.17;;
3881;SDS011;1956;53.482;10.238;2022-08-23T21:14:29;7.90;;;1.83;;
3881;SDS011;1956;53.482;10.238;2022-08-23T21:19:30;3.70;;;1.40;;
3881;SDS011;1956;53.482;10.238;2022-08-23T21:24:30;2.17;;;1.70;;
3881;SDS011;1956;53.482;10.238;2022-08-23T21:29:31;5.77;;;1.93;;
3881;SDS011;1956;53.482;10.238;2022-08-23T21:34:31;2.40;;;1.73;;
3881;SDS011;1956;53.482;10.238;2022-08-23T21:39:32;2.57;;;1.67;;
3881;SDS011;1956;53.482;10.238;2022-08-23T21:44:33;1.57;;;1.47;;
3881;SDS011;1956;53.482;10.238;2022-08-23T21:49:33;8.10;;;1.93;;
3881;SDS011;1956;53.482;10.238;2022-08-23T21:54:34;3.57;;;2.00;;
3881;SDS011;1956;53.482;10.238;2022-08-23T21:59:34;2.17;;;1.67;;
3881;SDS011;1956;53.482;10.238;2022-08-23T22:04:35;8.83;;;1.83;;
3881;SDS011;1956;53.482;10.238;2022-08-23T22:09:35;3.37;;;1.80;;
3881;SDS011;1956;53.482;10.238;2022-08-23T22:14:36;7.80;;;2.00;;
3881;SDS011;1956;53.482;10.238;2022-08-23T22:19:36;6.93;;;1.87;;
3881;SDS011;1956;53.482;10.238;2022-08-23T22:24:36;3.43;;;1.87;;
3881;SDS011;1956;53.482;10.238;2022-08-23T22:29:37;3.23;;;1.60;;
3881;SDS011;1956;53.482;10.238;2022-08-23T22:34:37;4.67;;;2.10;;
3881;SDS011;1956;53.482;10.238;2022-08-23T22:39:38;3.50;;;1.83;;
3881;SDS011;1956;53.482;10.238;2022-08-23T22:44:39;1.70;;;1.43;;
3881;SDS011;1956;53.482;10.238;2022-08-23T22:49:39;3.83;;;1.60;;
3881;SDS011;1956;53.482;10.238;2022-08-23T22:54:40;3.70;;;1.27;;
3881;SDS011;1956;53.482;10.238;2022-08-23T22:59:40;5.30;;;1.90;;
3881;SDS011;1956;53.482;10.238;2022-08-23T23:04:40;4.27;;;1.80;;
3881;SDS011;1956;53.482;10.238;2022-08-23T23:09:41;3.63;;;1.90;;
3881;SDS011;1956;53.482;10.238;2022-08-23T23:14:41;1.70;;;1.40;;
3881;SDS011;1956;53.482;10.238;2022-08-23T23:19:42;4.00;;;2.37;;
3881;SDS011;1956;53.482;10.238;2022-08-23T23:25:00;5.90;;;1.60;;
3881;SDS011;1956;53.482;10.238;2022-08-23T23:30:01;1.73;;;1.53;;
3881;SDS011;1956;53.482;10.238;2022-08-23T23:35:01;1.50;;;1.40;;
3881;SDS011;1956;53.482;10.238;2022-08-23T23:40:03;2.07;;;1.27;;
3881;SDS011;1956;53.482;10.238;2022-08-23T23:45:05;2.00;;;1.87;;
3881;SDS011;1956;53.482;10.238;2022-08-23T23:50:07;2.73;;;1.40;;
3881;SDS011;1956;53.482;10.238;2022-08-23T23:55:09;3.57;;;1.47;;
